createdAt,value
2022-11-17T00:00:44.538Z,9.82
2022-11-17T00:03:16.199Z,10.50
2022-11-17T00:06:03.085Z,5.47
2022-11-17T00:08:29.982Z,11.27
2022-11-17T00:11:02.106Z,7.70
2022-11-17T00:13:47.944Z,7.07
2022-11-17T00:16:16.888Z,9.18
2022-11-17T00:19:04.818Z,10.55
2022-11-17T00:21:32.046Z,7.90
2022-11-17T00:24:00.561Z,8.90
2022-11-17T00:26:33.055Z,8.00
2022-11-17T00:29:10.200Z,7.60
2022-11-17T00:31:56.911Z,8.65
2022-11-17T00:34:24.041Z,7.93
2022-11-17T00:36:54.528Z,7.03
2022-11-17T00:39:24.122Z,8.85
2022-11-17T00:41:51.351Z,9.07
2022-11-17T00:44:18.536Z,9.65
2022-11-17T00:46:46.300Z,8.15
2022-11-17T00:49:14.905Z,10.18
2022-11-17T00:51:42.297Z,9.05
2022-11-17T00:54:13.199Z,9.85
2022-11-17T00:56:42.319Z,7.00
2022-11-17T00:59:09.714Z,9.52
2022-11-17T01:01:40.042Z,9.90
2022-11-17T01:04:07.917Z,9.18
2022-11-17T01:06:40.838Z,6.53
2022-11-17T01:09:13.631Z,7.13
2022-11-17T01:11:41.670Z,8.27
2022-11-17T01:14:12.851Z,7.10
2022-11-17T01:16:40.055Z,7.70
2022-11-17T01:19:07.326Z,8.88
2022-11-17T01:21:34.501Z,9.13
2022-11-17T01:24:02.329Z,10.32
2022-11-17T01:26:34.781Z,6.47
2022-11-17T01:29:03.633Z,9.43
2022-11-17T01:31:36.197Z,11.23
2022-11-17T01:34:03.689Z,9.48
2022-11-17T01:36:51.474Z,9.13
2022-11-17T01:39:18.428Z,10.25
2022-11-17T01:41:45.757Z,10.52
2022-11-17T01:44:50.026Z,10.98
2022-11-17T01:47:35.253Z,4.82
2022-11-17T01:50:31.171Z,7.75
2022-11-17T01:53:02.250Z,9.02
2022-11-17T01:55:41.750Z,9.27
2022-11-17T01:58:30.400Z,9.57
2022-11-17T02:00:58.165Z,10.68
2022-11-17T02:03:27.244Z,11.07
2022-11-17T02:06:10.894Z,10.75
2022-11-17T02:08:40.413Z,10.85
2022-11-17T02:11:14.280Z,10.95
2022-11-17T02:13:41.636Z,6.45
2022-11-17T02:16:16.056Z,9.65
2022-11-17T02:18:44.495Z,9.55
2022-11-17T02:21:48.437Z,9.82
2022-11-17T02:24:27.170Z,8.63
2022-11-17T02:27:15.470Z,10.40
2022-11-17T02:29:56.761Z,6.10
2022-11-17T02:32:33.369Z,7.57
2022-11-17T02:35:17.144Z,12.15
2022-11-17T02:38:12.542Z,10.07
2022-11-17T02:40:48.433Z,7.25
2022-11-17T02:43:39.075Z,7.00
2022-11-17T02:46:09.477Z,10.80
2022-11-17T02:48:45.116Z,10.73
2022-11-17T02:51:22.808Z,11.13
2022-11-17T02:53:53.410Z,9.63
2022-11-17T02:56:20.249Z,10.77
2022-11-17T02:58:52.249Z,8.90
2022-11-17T03:01:24.761Z,9.40
2022-11-17T03:04:06.345Z,12.07
2022-11-17T03:06:48.940Z,11.77
2022-11-17T03:09:21.516Z,10.50
2022-11-17T03:12:06.396Z,11.68
2022-11-17T03:14:53.347Z,11.07
2022-11-17T03:17:30.855Z,10.82
2022-11-17T03:20:04.849Z,7.55
2022-11-17T03:22:41.839Z,10.23
2022-11-17T03:25:15.074Z,10.07
2022-11-17T03:27:47.291Z,14.27
2022-11-17T03:30:15.135Z,9.75
2022-11-17T03:32:47.171Z,10.65
2022-11-17T03:35:19.692Z,11.23
2022-11-17T03:37:53.632Z,9.75
2022-11-17T03:40:25.875Z,10.38
2022-11-17T03:42:57.728Z,8.55
2022-11-17T03:45:30.927Z,12.10
2022-11-17T03:48:08.804Z,10.90
2022-11-17T03:50:41.051Z,9.73
2022-11-17T03:53:08.160Z,7.63
2022-11-17T03:56:02.990Z,10.35
2022-11-17T03:58:34.165Z,9.75
2022-11-17T04:01:03.677Z,6.78
2022-11-17T04:03:34.818Z,8.90
2022-11-17T04:06:04.129Z,6.10
2022-11-17T04:08:31.910Z,8.43
2022-11-17T04:11:17.115Z,9.75
2022-11-17T04:14:02.592Z,6.97
2022-11-17T04:16:29.262Z,9.52
2022-11-17T04:18:58.889Z,7.03
2022-11-17T04:21:26.035Z,6.10
2022-11-17T04:23:52.800Z,8.93
2022-11-17T04:26:38.406Z,4.88
2022-11-17T04:29:05.046Z,8.77
2022-11-17T04:31:32.160Z,7.00
2022-11-17T04:34:04.239Z,7.85
2022-11-17T04:36:34.914Z,7.88
2022-11-17T04:39:01.930Z,9.07
2022-11-17T04:41:48.133Z,4.80
2022-11-17T04:44:16.937Z,8.40
2022-11-17T04:46:44.764Z,6.95
2022-11-17T04:49:13.767Z,6.32
2022-11-17T04:51:41.138Z,7.63
2022-11-17T04:54:09.416Z,7.05
2022-11-17T04:56:36.733Z,5.70
2022-11-17T04:59:04.299Z,8.13
2022-11-17T05:01:31.807Z,7.20
2022-11-17T05:04:01.410Z,9.65
2022-11-17T05:06:34.006Z,6.65
2022-11-17T05:09:03.780Z,5.30
2022-11-17T05:11:49.690Z,9.00
2022-11-17T05:14:21.076Z,6.13
2022-11-17T05:17:10.889Z,8.13
2022-11-17T05:19:40.770Z,7.55
2022-11-17T05:22:28.764Z,8.63
2022-11-17T05:24:56.712Z,8.85
2022-11-17T05:27:23.940Z,7.25
2022-11-17T05:29:50.686Z,6.90
2022-11-17T05:32:17.977Z,5.30
2022-11-17T05:34:44.585Z,6.78
2022-11-17T05:37:12.533Z,7.65
2022-11-17T05:39:39.184Z,9.57
2022-11-17T05:42:06.246Z,8.48
2022-11-17T05:44:32.888Z,5.82
2022-11-17T05:46:59.593Z,8.95
2022-11-17T05:49:26.548Z,9.35
2022-11-17T05:51:53.373Z,5.28
2022-11-17T05:54:20.632Z,6.95
2022-11-17T05:56:56.569Z,6.28
2022-11-17T05:59:43.963Z,8.68
2022-11-17T06:02:17.008Z,5.82
2022-11-17T06:04:44.446Z,10.07
2022-11-17T06:07:11.273Z,5.60
2022-11-17T06:09:41.795Z,10.10
2022-11-17T06:12:10.228Z,8.82
2022-11-17T06:14:39.268Z,10.00
2022-11-17T06:17:23.308Z,6.63
2022-11-17T06:19:58.278Z,7.68
2022-11-17T06:22:26.873Z,10.63
2022-11-17T06:24:54.523Z,10.02
2022-11-17T06:27:21.384Z,8.45
2022-11-17T06:29:49.468Z,5.72
2022-11-17T06:32:19.028Z,9.45
2022-11-17T06:34:53.833Z,6.13
2022-11-17T06:37:22.644Z,8.20
2022-11-17T06:39:49.392Z,7.93
2022-11-17T06:42:16.152Z,6.32
2022-11-17T06:44:43.331Z,9.05
2022-11-17T06:47:12.449Z,6.07
2022-11-17T06:49:39.266Z,8.10
2022-11-17T06:52:05.892Z,5.10
2022-11-17T06:54:32.532Z,5.55
2022-11-17T06:57:00.569Z,6.47
2022-11-17T06:59:27.164Z,6.57
2022-11-17T07:01:54.932Z,7.32
2022-11-17T07:04:21.535Z,5.78
2022-11-17T07:06:48.227Z,7.70
2022-11-17T07:09:14.868Z,8.57
2022-11-17T07:11:42.452Z,6.72
2022-11-17T07:14:09.065Z,6.80
2022-11-17T07:16:35.721Z,6.55
2022-11-17T07:19:03.909Z,4.43
2022-11-17T07:21:30.596Z,7.30
2022-11-17T07:23:57.947Z,8.30
2022-11-17T07:26:24.542Z,9.15
2022-11-17T07:28:51.554Z,5.47
2022-11-17T07:31:18.202Z,5.35
2022-11-17T07:33:44.832Z,6.65
2022-11-17T07:36:14.674Z,5.55
2022-11-17T07:38:41.595Z,6.95
2022-11-17T07:41:10.254Z,6.32
2022-11-17T07:43:36.992Z,6.15
2022-11-17T07:46:14.474Z,7.68
2022-11-17T07:48:43.092Z,8.38
2022-11-17T07:51:10.136Z,8.10
2022-11-17T07:53:36.904Z,4.75
2022-11-17T07:56:08.842Z,6.25
2022-11-17T07:58:36.375Z,7.75
2022-11-17T08:01:07.887Z,6.75
2022-11-17T08:03:34.667Z,6.30
2022-11-17T08:06:03.055Z,5.50
2022-11-17T08:08:31.306Z,6.60
2022-11-17T08:11:02.823Z,7.10
2022-11-17T08:13:29.497Z,4.05
2022-11-17T08:15:57.385Z,6.80
2022-11-17T08:18:24.375Z,6.45
2022-11-17T08:20:51.040Z,4.68
2022-11-17T08:23:23.440Z,6.07
2022-11-17T08:25:50.381Z,5.47
2022-11-17T08:28:17.033Z,4.88
2022-11-17T08:30:44.713Z,6.85
2022-11-17T08:33:11.367Z,6.20
2022-11-17T08:35:38.293Z,4.68
2022-11-17T08:38:05.283Z,8.77
2022-11-17T08:40:31.913Z,4.60
2022-11-17T08:43:01.414Z,5.75
2022-11-17T08:45:28.616Z,6.60
2022-11-17T08:47:57.105Z,7.25
2022-11-17T08:50:23.890Z,6.65
2022-11-17T08:52:52.235Z,6.18
2022-11-17T08:55:19.155Z,6.95
2022-11-17T08:57:48.778Z,6.80
2022-11-17T09:00:16.521Z,5.95
2022-11-17T09:02:43.154Z,7.65
2022-11-17T09:05:09.794Z,5.38
2022-11-17T09:07:36.534Z,6.05
2022-11-17T09:10:05.352Z,5.40
2022-11-17T09:12:32.493Z,5.25
2022-11-17T09:14:59.149Z,4.07
2022-11-17T09:17:25.903Z,7.68
2022-11-17T09:19:53.976Z,6.60
2022-11-17T09:22:21.306Z,6.38
2022-11-17T09:24:49.230Z,6.65
2022-11-17T09:27:15.941Z,8.57
2022-11-17T09:29:42.542Z,6.90
2022-11-17T09:32:09.707Z,6.60
2022-11-17T09:34:36.430Z,6.95
2022-11-17T09:37:03.088Z,9.43
2022-11-17T09:39:29.674Z,5.43
2022-11-17T09:41:57.539Z,5.72
2022-11-17T09:44:45.940Z,5.32
2022-11-17T09:47:38.466Z,6.60
2022-11-17T09:50:43.672Z,4.90
2022-11-17T09:53:22.738Z,6.35
2022-11-17T09:55:56.098Z,6.18
2022-11-17T09:58:25.490Z,5.07
2022-11-17T10:00:53.917Z,3.88
2022-11-17T10:03:22.243Z,6.13
2022-11-17T10:05:49.609Z,4.45
2022-11-17T10:08:54.799Z,5.85
2022-11-17T10:11:33.827Z,4.40
2022-11-17T10:14:12.108Z,4.68
2022-11-17T10:16:42.124Z,4.22
2022-11-17T10:19:24.387Z,4.65
2022-11-17T10:22:07.194Z,4.65
2022-11-17T10:24:48.148Z,5.53
2022-11-17T10:27:22.451Z,4.25
2022-11-17T10:29:59.444Z,5.05
2022-11-17T10:32:30.955Z,6.13
2022-11-17T10:35:14.422Z,5.78
2022-11-17T10:37:51.778Z,4.80
2022-11-17T10:40:25.914Z,5.55
2022-11-17T10:43:35.318Z,4.43
2022-11-17T10:46:12.801Z,4.40
2022-11-17T10:48:40.900Z,3.97
2022-11-17T10:51:23.339Z,3.60
2022-11-17T10:54:06.964Z,3.60
2022-11-17T10:56:41.582Z,4.15
2022-11-17T10:59:08.247Z,4.90
2022-11-17T11:01:37.606Z,4.15
2022-11-17T11:04:07.646Z,4.53
2022-11-17T11:06:35.667Z,4.18
2022-11-17T11:09:10.429Z,3.70
2022-11-17T11:11:47.474Z,4.10
2022-11-17T11:14:29.125Z,3.63
2022-11-17T11:16:57.401Z,3.47
2022-11-17T11:19:24.196Z,4.45
2022-11-17T11:22:21.796Z,4.25
2022-11-17T11:25:33.248Z,3.55
2022-11-17T11:28:32.447Z,3.55
2022-11-17T11:31:24.407Z,6.20
2022-11-17T11:34:19.015Z,3.55
2022-11-17T11:36:57.006Z,3.13
2022-11-17T11:39:32.914Z,3.95
2022-11-17T11:42:14.530Z,5.20
2022-11-17T11:44:59.971Z,3.92
2022-11-17T11:47:33.884Z,4.55
2022-11-17T11:50:09.469Z,5.38
2022-11-17T11:52:41.499Z,4.57
2022-11-17T11:55:22.942Z,3.88
2022-11-17T11:57:56.848Z,4.05
2022-11-17T12:00:23.629Z,3.40
2022-11-17T12:03:05.216Z,3.70
2022-11-17T12:05:53.189Z,3.30
2022-11-17T12:08:49.856Z,3.58
2022-11-17T12:11:35.688Z,3.65
2022-11-17T12:14:06.152Z,3.15
2022-11-17T12:16:36.976Z,3.50
2022-11-17T12:20:09.365Z,3.70
2022-11-17T12:22:38.354Z,3.58
2022-11-17T12:25:29.188Z,4.47
2022-11-17T12:27:56.715Z,3.83
2022-11-17T12:30:29.188Z,4.30
2022-11-17T12:33:08.391Z,3.42
2022-11-17T12:35:37.336Z,3.42
2022-11-17T12:38:16.587Z,3.55
2022-11-17T13:31:05.996Z,3.30
2022-11-17T13:39:27.506Z,4.45
2022-11-17T13:41:56.042Z,4.35
2022-11-17T13:44:25.497Z,4.30
2022-11-17T13:46:52.384Z,4.68
2022-11-17T13:49:39.893Z,3.70
2022-11-17T13:52:34.604Z,4.07
2022-11-17T13:55:10.618Z,4.03
2022-11-17T13:57:37.601Z,3.83
2022-11-17T14:00:04.959Z,3.72
2022-11-17T14:02:31.897Z,4.20
2022-11-17T14:05:23.266Z,4.50
2022-11-17T14:07:51.154Z,2.70
2022-11-17T14:10:34.097Z,3.45
2022-11-17T14:13:01.746Z,5.82
2022-11-17T14:15:35.171Z,3.75
2022-11-17T14:18:15.489Z,4.03
2022-11-17T14:20:42.509Z,5.05
2022-11-17T14:23:09.140Z,5.65
2022-11-17T14:25:39.328Z,5.65
2022-11-17T14:28:14.604Z,5.97
2022-11-17T14:30:41.383Z,7.60
2022-11-17T14:33:13.360Z,4.72
2022-11-17T14:35:41.063Z,5.97
2022-11-17T15:08:16.997Z,3.97
2022-11-17T15:10:56.651Z,4.68
2022-11-17T15:13:23.252Z,4.80
2022-11-17T15:15:49.871Z,6.57
2022-11-17T15:18:16.412Z,5.88
2022-11-17T15:20:44.841Z,5.10
2022-11-17T15:23:12.549Z,4.55
2022-11-17T15:25:39.301Z,5.32
2022-11-17T15:28:07.369Z,6.90
2022-11-17T15:30:33.973Z,4.75
2022-11-17T15:33:01.717Z,5.82
2022-11-17T15:35:32.847Z,6.22
2022-11-17T15:37:59.452Z,4.85
2022-11-17T15:40:26.128Z,6.03
2022-11-17T15:42:53.823Z,5.55
2022-11-17T15:45:20.427Z,5.35
2022-11-17T15:47:47.087Z,5.15
2022-11-17T15:50:13.744Z,4.68
2022-11-17T15:53:03.154Z,3.70
2022-11-17T15:55:30.194Z,4.60
2022-11-17T15:57:56.804Z,5.53
2022-11-17T16:00:23.410Z,4.57
2022-11-17T16:02:53.234Z,5.68
2022-11-17T16:05:23.959Z,4.30
2022-11-17T16:07:50.597Z,5.40
2022-11-17T16:10:17.482Z,4.65
2022-11-17T16:12:44.248Z,4.65
2022-11-17T16:15:11.028Z,6.30
2022-11-17T16:17:37.791Z,6.25
2022-11-17T16:20:04.836Z,5.20
2022-11-17T16:22:31.518Z,5.07
2022-11-17T16:24:58.194Z,5.60
2022-11-17T16:27:24.922Z,5.55
2022-11-17T16:29:51.613Z,4.13
2022-11-17T16:32:18.184Z,5.78
2022-11-17T16:34:49.141Z,5.22
2022-11-17T16:37:16.298Z,4.35
2022-11-17T16:39:46.929Z,6.20
2022-11-17T16:42:13.593Z,6.45
2022-11-17T16:44:40.364Z,5.78
2022-11-17T16:47:07.191Z,6.38
2022-11-17T16:49:35.937Z,5.22
2022-11-17T16:52:02.648Z,5.85
2022-11-17T16:54:31.950Z,6.65
2022-11-17T16:56:58.731Z,5.20
2022-11-17T17:08:01.703Z,7.68
2022-11-17T17:10:28.361Z,6.05
2022-11-17T17:13:03.242Z,7.13
2022-11-17T17:15:30.999Z,7.50
2022-11-17T17:18:00.044Z,7.45
2022-11-17T17:20:26.879Z,6.95
2022-11-17T17:22:56.856Z,4.13
2022-11-17T17:25:27.739Z,6.55
2022-11-17T17:27:54.921Z,6.18
2022-11-17T17:30:23.015Z,7.07
2022-11-17T17:32:49.561Z,7.20
2022-11-17T17:35:17.607Z,6.47
2022-11-17T17:37:45.830Z,6.78
2022-11-17T17:40:12.487Z,6.28
2022-11-17T17:42:42.334Z,5.63
2022-11-17T17:45:14.592Z,8.35
2022-11-17T17:47:42.362Z,7.60
2022-11-17T17:50:09.423Z,6.75
2022-11-17T17:52:36.240Z,5.55
2022-11-17T17:55:04.382Z,7.15
2022-11-17T17:57:33.896Z,6.10
2022-11-17T18:00:01.363Z,6.90
2022-11-17T18:02:37.688Z,7.03
2022-11-17T18:05:04.754Z,7.07
2022-11-17T18:07:31.486Z,7.93
2022-11-17T18:09:58.181Z,6.70
2022-11-17T18:12:25.289Z,5.68
2022-11-17T18:14:52.095Z,6.63
2022-11-17T18:17:19.658Z,7.05
2022-11-17T18:19:49.769Z,7.00
2022-11-17T18:22:17.160Z,6.32
2022-11-17T18:24:43.790Z,6.85
2022-11-17T18:27:10.632Z,6.15
2022-11-17T18:29:37.260Z,6.60
2022-11-17T18:32:04.118Z,6.72
2022-11-17T18:34:30.755Z,6.65
2022-11-17T18:36:57.351Z,6.18
2022-11-17T18:39:24.641Z,4.63
2022-11-17T18:41:51.282Z,4.72
2022-11-17T18:44:21.394Z,6.45
2022-11-17T18:46:48.339Z,6.15
2022-11-17T18:49:15.384Z,6.30
2022-11-17T18:51:42.363Z,6.28
2022-11-17T18:54:11.523Z,6.03
2022-11-17T18:56:38.511Z,5.18
2022-11-17T18:59:11.583Z,6.35
2022-11-17T19:01:40.799Z,6.05
2022-11-17T19:04:07.627Z,4.55
2022-11-17T19:06:34.695Z,4.53
2022-11-17T19:09:01.529Z,5.13
2022-11-17T19:11:30.875Z,4.78
2022-11-17T19:13:58.835Z,6.78
2022-11-17T19:16:26.888Z,6.05
2022-11-17T19:18:55.603Z,4.05
2022-11-17T19:21:26.015Z,6.65
2022-11-17T19:23:54.619Z,6.18
2022-11-17T19:26:29.149Z,6.22
2022-11-17T19:29:03.091Z,4.82
2022-11-17T19:31:30.251Z,6.13
2022-11-17T19:33:57.952Z,5.95
2022-11-17T19:36:27.651Z,6.63
2022-11-17T19:38:56.252Z,6.00
2022-11-17T19:41:35.183Z,5.80
2022-11-17T19:44:05.110Z,7.15
2022-11-17T19:46:34.472Z,3.70
2022-11-17T19:49:01.567Z,7.28
2022-11-17T19:51:31.979Z,7.25
2022-11-17T19:54:02.075Z,4.00
2022-11-17T19:56:29.300Z,6.28
2022-11-17T19:58:59.212Z,5.75
2022-11-17T20:01:29.540Z,7.10
2022-11-17T20:03:58.270Z,8.15
2022-11-17T20:06:28.717Z,5.47
2022-11-17T20:08:57.570Z,3.83
2022-11-17T20:11:27.005Z,5.90
2022-11-17T20:13:55.278Z,6.53
2022-11-17T20:16:27.123Z,7.32
2022-11-17T20:18:56.243Z,5.80
2022-11-17T20:21:24.208Z,7.47
2022-11-17T20:23:51.360Z,7.25
2022-11-17T20:26:20.936Z,7.13
2022-11-17T20:28:48.386Z,4.75
2022-11-17T20:31:19.461Z,5.60
2022-11-17T20:33:49.418Z,7.35
2022-11-17T20:36:18.899Z,7.15
2022-11-17T20:41:28.830Z,5.32
2022-11-17T20:44:00.015Z,6.78
2022-11-17T20:46:29.908Z,8.13
2022-11-17T20:48:56.671Z,4.97
2022-11-17T20:56:46.936Z,5.72
2022-11-17T20:59:20.013Z,6.88
2022-11-17T21:01:53.186Z,5.95
2022-11-17T21:04:21.966Z,6.43
2022-11-17T21:06:48.795Z,8.65
2022-11-17T21:09:16.124Z,6.35
2022-11-17T21:12:07.243Z,6.78
2022-11-17T21:14:42.340Z,7.60
2022-11-17T21:17:31.337Z,5.78
2022-11-17T21:19:58.494Z,7.78
2022-11-17T21:22:25.465Z,8.07
2022-11-17T21:24:52.210Z,7.25
2022-11-17T21:27:24.398Z,7.35
2022-11-17T21:29:53.490Z,7.28
2022-11-17T21:32:20.680Z,8.55
2022-11-17T21:34:49.891Z,4.13
2022-11-17T21:37:16.783Z,6.13
2022-11-17T21:39:45.830Z,7.20
2022-11-17T21:42:17.978Z,8.63
2022-11-17T21:44:47.807Z,5.18
2022-11-17T21:47:16.181Z,8.38
2022-11-17T21:49:44.689Z,8.00
2022-11-17T21:52:11.643Z,5.13
2022-11-17T21:54:38.346Z,8.38
2022-11-17T21:57:05.115Z,6.28
2022-11-17T21:59:32.042Z,5.15
2022-11-17T22:02:00.473Z,5.90
2022-11-17T22:04:27.832Z,6.80
2022-11-17T22:07:07.547Z,6.70
2022-11-17T22:09:36.229Z,8.95
2022-11-17T22:12:06.777Z,8.50
2022-11-17T22:14:38.305Z,6.68
2022-11-17T22:17:05.000Z,6.97
2022-11-17T22:19:34.988Z,5.50
2022-11-17T22:22:02.038Z,6.28
2022-11-17T22:24:30.293Z,7.80
2022-11-17T22:26:58.911Z,7.05
2022-11-17T22:29:29.478Z,7.10
2022-11-17T22:31:56.264Z,6.63
2022-11-17T22:34:23.056Z,7.97
2022-11-17T22:36:49.873Z,6.35
2022-11-17T22:39:17.065Z,7.85
2022-11-17T22:41:43.917Z,8.68
2022-11-17T22:44:17.789Z,6.25
2022-11-17T22:46:46.276Z,4.97
2022-11-17T22:49:13.684Z,7.03
2022-11-17T22:51:59.347Z,6.35
2022-11-17T22:57:10.364Z,5.05
2022-11-17T22:59:45.143Z,8.43
2022-11-17T23:02:12.072Z,6.45
2022-11-17T23:04:40.137Z,7.32
2022-11-17T23:07:08.062Z,3.67
2022-11-17T23:09:36.131Z,6.55
2022-11-17T23:12:05.016Z,6.50
2022-11-17T23:14:31.633Z,7.47
2022-11-17T23:16:58.285Z,8.60
2022-11-17T23:19:25.154Z,8.35
2022-11-17T23:21:54.991Z,5.43
2022-11-17T23:24:21.812Z,7.70
2022-11-17T23:26:48.717Z,7.53
2022-11-17T23:29:15.933Z,5.22
2022-11-17T23:31:44.695Z,5.72
2022-11-17T23:34:11.541Z,6.30
2022-11-17T23:36:38.535Z,6.00
2022-11-17T23:39:05.580Z,7.55
2022-11-17T23:41:34.199Z,6.55
2022-11-17T23:44:01.574Z,6.50
2022-11-17T23:46:30.031Z,7.05
2022-11-17T23:48:57.758Z,4.70
2022-11-17T23:51:27.447Z,6.38
2022-11-17T23:53:56.722Z,5.72
2022-11-17T23:56:25.462Z,7.13
2022-11-17T23:58:53.412Z,4.93
